map of KRNM home
KRNM - Airport
Location
City:  Ramona, California, United States
ICAO:KRNM
FAA LID:RNM

Details
Type:Airport (Airfield)
Use:Public/Civil
Latitude:3302'21"N (33.039167)
Longitude:11654'55"W (-116.915249)
Datum:WGS 1984
Elevation:1394 ft (425 m)
Variation:11.44E (WMM2015v2 magnetic declination)
-0.08 annual change
Runways:1
Longest:5001 × 150 ft (1524 × 45.5 m), paved

Time
Time Zone:UTC-8 (DST-7)
Local Time:

Weather
METAR:KRNM 041353Z AUTO 00000KT 2 1/2SM -RA BR FEW009 BKN013 OVC020 09/08 A2988 RMK AO2 RAB02 SLP113 P0004 T00890078

Related Locations
Nearby:
Farthest:RRG: 11515 mi / 18532 km
Plaine Corail [Sir Gatan Duval Airport (Plaine Corail Airport)], Rodrigues Island, MU

Find:

   beyond  
but within

Other Information
Maps:
NOTAMs:
Links:
Sources:

  
  • flag of United States
  • flag of California
  

Airport Diagram

Airport diagram for KRNM

Airport diagram PDF from FAA

Sectional Chart

Flight Planning
at skyvector.com

Satellite Image

Google Maps Satellite view

 

Copyright © 2004-2019 Karl L. Swartz. All rights reserved.
The Great Circle Mapper name and logo are trademarks of the Great Circle Mapper.
All other trademarks mentioned herein belong to their respective owners.
Please see credits for attibutions and further copyright information.

  Follow gcmap on Facebook Follow gcmap on Twitter GCmap on LinkedIn

hCard Microformat

Geo Microformat